sensor_id;sensor_type;location;lat;lon;timestamp;temperature;humidity
6696;DHT22;3385;48.928;10.330;2023-04-16T00:01:40;5.20;99.90
6696;DHT22;3385;48.928;10.330;2023-04-16T00:04:05;5.30;99.90
6696;DHT22;3385;48.928;10.330;2023-04-16T00:06:31;5.40;99.90
6696;DHT22;3385;48.928;10.330;2023-04-16T00:08:57;5.40;99.90
6696;DHT22;3385;48.928;10.330;2023-04-16T00:11:23;5.40;99.90
6696;DHT22;3385;48.928;10.330;2023-04-16T00:13:48;5.40;99.90
6696;DHT22;3385;48.928;10.330;2023-04-16T00:16:14;5.40;99.90
6696;DHT22;3385;48.928;10.330;2023-04-16T00:18:40;5.40;99.90
6696;DHT22;3385;48.928;10.330;2023-04-16T00:21:06;5.40;99.90
6696;DHT22;3385;48.928;10.330;2023-04-16T00:23:32;5.50;99.90
6696;DHT22;3385;48.928;10.330;2023-04-16T00:25:58;5.20;99.90
6696;DHT22;3385;48.928;10.330;2023-04-16T00:28:26;5.40;99.90
6696;DHT22;3385;48.928;10.330;2023-04-16T00:30:52;5.40;99.90
6696;DHT22;3385;48.928;10.330;2023-04-16T00:33:18;5.60;99.90
6696;DHT22;3385;48.928;10.330;2023-04-16T00:35:45;5.60;99.90
6696;DHT22;3385;48.928;10.330;2023-04-16T00:38:11;5.40;99.90
6696;DHT22;3385;48.928;10.330;2023-04-16T00:40:37;5.30;99.90
6696;DHT22;3385;48.928;10.330;2023-04-16T00:43:03;5.50;99.90
6696;DHT22;3385;48.928;10.330;2023-04-16T00:45:29;5.40;99.90
6696;DHT22;3385;48.928;10.330;2023-04-16T00:47:55;5.30;99.90
6696;DHT22;3385;48.928;10.330;2023-04-16T00:50:23;5.50;99.90
6696;DHT22;3385;48.928;10.330;2023-04-16T00:52:49;5.60;99.90
6696;DHT22;3385;48.928;10.330;2023-04-16T00:55:15;8.30;99.90
6696;DHT22;3385;48.928;10.330;2023-04-16T00:57:43;5.50;99.90
6696;DHT22;3385;48.928;10.330;2023-04-16T01:00:09;5.40;99.90
6696;DHT22;3385;48.928;10.330;2023-04-16T01:02:35;5.50;99.90
6696;DHT22;3385;48.928;10.330;2023-04-16T01:05:02;5.50;99.90
6696;DHT22;3385;48.928;10.330;2023-04-16T01:07:28;5.30;99.90
6696;DHT22;3385;48.928;10.330;2023-04-16T01:09:54;5.40;99.90
6696;DHT22;3385;48.928;10.330;2023-04-16T01:12:21;5.30;99.90
6696;DHT22;3385;48.928;10.330;2023-04-16T01:14:46;5.70;99.90
6696;DHT22;3385;48.928;10.330;2023-04-16T01:17:12;5.50;99.90
6696;DHT22;3385;48.928;10.330;2023-04-16T01:19:38;5.60;99.90
6696;DHT22;3385;48.928;10.330;2023-04-16T01:22:04;5.50;99.90
6696;DHT22;3385;48.928;10.330;2023-04-16T01:24:30;5.60;99.90
6696;DHT22;3385;48.928;10.330;2023-04-16T01:26:57;5.60;99.90
6696;DHT22;3385;48.928;10.330;2023-04-16T01:29:24;5.60;99.90
6696;DHT22;3385;48.928;10.330;2023-04-16T01:31:50;5.60;99.90
6696;DHT22;3385;48.928;10.330;2023-04-16T01:34:15;5.40;99.90
6696;DHT22;3385;48.928;10.330;2023-04-16T01:36:41;5.60;99.90
6696;DHT22;3385;48.928;10.330;2023-04-16T01:39:07;5.90;99.90
6696;DHT22;3385;48.928;10.330;2023-04-16T01:41:36;5.40;99.90
6696;DHT22;3385;48.928;10.330;2023-04-16T01:44:02;5.50;99.90
6696;DHT22;3385;48.928;10.330;2023-04-16T01:46:29;5.70;99.90
6696;DHT22;3385;48.928;10.330;2023-04-16T01:48:56;5.40;99.90
6696;DHT22;3385;48.928;10.330;2023-04-16T01:51:22;5.50;99.90
6696;DHT22;3385;48.928;10.330;2023-04-16T01:53:51;5.70;99.90
6696;DHT22;3385;48.928;10.330;2023-04-16T01:56:17;5.70;99.90
6696;DHT22;3385;48.928;10.330;2023-04-16T01:58:43;5.80;99.90
6696;DHT22;3385;48.928;10.330;2023-04-16T02:01:10;5.70;99.90
6696;DHT22;3385;48.928;10.330;2023-04-16T02:03:36;5.50;99.90
6696;DHT22;3385;48.928;10.330;2023-04-16T02:06:02;5.70;99.90
6696;DHT22;3385;48.928;10.330;2023-04-16T02:08:28;5.80;99.90
6696;DHT22;3385;48.928;10.330;2023-04-16T02:10:55;5.70;99.90
6696;DHT22;3385;48.928;10.330;2023-04-16T02:13:21;7.30;99.90
6696;DHT22;3385;48.928;10.330;2023-04-16T02:15:51;5.50;99.90
6696;DHT22;3385;48.928;10.330;2023-04-16T02:18:17;5.60;99.90
6696;DHT22;3385;48.928;10.330;2023-04-16T02:20:44;5.70;99.90
6696;DHT22;3385;48.928;10.330;2023-04-16T02:23:10;5.80;99.90
6696;DHT22;3385;48.928;10.330;2023-04-16T02:25:40;5.50;99.90
6696;DHT22;3385;48.928;10.330;2023-04-16T02:28:16;5.50;99.90
6696;DHT22;3385;48.928;10.330;2023-04-16T02:30:42;5.80;99.90
6696;DHT22;3385;48.928;10.330;2023-04-16T02:33:09;5.50;99.90
6696;DHT22;3385;48.928;10.330;2023-04-16T02:35:37;5.60;99.90
6696;DHT22;3385;48.928;10.330;2023-04-16T02:38:03;5.50;99.90
6696;DHT22;3385;48.928;10.330;2023-04-16T02:40:29;6.20;99.90
6696;DHT22;3385;48.928;10.330;2023-04-16T02:42:56;5.60;99.90
6696;DHT22;3385;48.928;10.330;2023-04-16T02:45:22;5.70;99.90
6696;DHT22;3385;48.928;10.330;2023-04-16T02:47:48;5.70;99.90
6696;DHT22;3385;48.928;10.330;2023-04-16T02:50:14;5.50;99.90
6696;DHT22;3385;48.928;10.330;2023-04-16T02:52:40;5.90;99.90
6696;DHT22;3385;48.928;10.330;2023-04-16T02:55:06;5.90;99.90
6696;DHT22;3385;48.928;10.330;2023-04-16T02:57:32;5.90;99.90
6696;DHT22;3385;48.928;10.330;2023-04-16T02:59:58;5.70;99.90
6696;DHT22;3385;48.928;10.330;2023-04-16T03:02:24;5.60;99.90
6696;DHT22;3385;48.928;10.330;2023-04-16T03:04:50;6.00;99.90
6696;DHT22;3385;48.928;10.330;2023-04-16T03:07:15;5.90;99.90
6696;DHT22;3385;48.928;10.330;2023-04-16T03:09:43;5.70;99.90
6696;DHT22;3385;48.928;10.330;2023-04-16T03:12:09;4.00;99.90
6696;DHT22;3385;48.928;10.330;2023-04-16T03:14:34;5.90;99.90
6696;DHT22;3385;48.928;10.330;2023-04-16T03:17:00;5.90;99.90
6696;DHT22;3385;48.928;10.330;2023-04-16T03:19:26;5.90;99.90
6696;DHT22;3385;48.928;10.330;2023-04-16T03:21:52;6.00;99.90
6696;DHT22;3385;48.928;10.330;2023-04-16T03:24:18;5.70;99.90
6696;DHT22;3385;48.928;10.330;2023-04-16T03:26:43;6.00;99.90
6696;DHT22;3385;48.928;10.330;2023-04-16T03:29:09;5.80;99.90
6696;DHT22;3385;48.928;10.330;2023-04-16T03:31:35;6.00;99.90
6696;DHT22;3385;48.928;10.330;2023-04-16T03:34:01;5.70;99.90
6696;DHT22;3385;48.928;10.330;2023-04-16T03:36:26;6.30;99.90
6696;DHT22;3385;48.928;10.330;2023-04-16T03:38:52;6.00;99.90
6696;DHT22;3385;48.928;10.330;2023-04-16T03:41:18;5.80;99.90
6696;DHT22;3385;48.928;10.330;2023-04-16T03:43:44;5.90;99.90
6696;DHT22;3385;48.928;10.330;2023-04-16T03:46:10;5.90;99.90
6696;DHT22;3385;48.928;10.330;2023-04-16T03:48:36;6.00;99.90
6696;DHT22;3385;48.928;10.330;2023-04-16T03:51:02;6.10;99.90
6696;DHT22;3385;48.928;10.330;2023-04-16T03:53:28;6.20;99.90
6696;DHT22;3385;48.928;10.330;2023-04-16T03:55:53;6.10;99.90
6696;DHT22;3385;48.928;10.330;2023-04-16T03:58:19;6.10;99.90
6696;DHT22;3385;48.928;10.330;2023-04-16T04:00:46;6.10;99.90
6696;DHT22;3385;48.928;10.330;2023-04-16T04:03:12;5.90;99.90
6696;DHT22;3385;48.928;10.330;2023-04-16T04:05:41;6.20;99.90
6696;DHT22;3385;48.928;10.330;2023-04-16T04:08:08;6.10;99.90
6696;DHT22;3385;48.928;10.330;2023-04-16T04:10:37;6.10;99.90
6696;DHT22;3385;48.928;10.330;2023-04-16T04:13:04;6.10;99.90
6696;DHT22;3385;48.928;10.330;2023-04-16T04:15:30;6.60;99.90
6696;DHT22;3385;48.928;10.330;2023-04-16T04:17:56;6.10;99.90
6696;DHT22;3385;48.928;10.330;2023-04-16T04:20:22;6.10;99.90
6696;DHT22;3385;48.928;10.330;2023-04-16T04:22:49;6.20;99.90
6696;DHT22;3385;48.928;10.330;2023-04-16T04:25:15;6.20;99.90
6696;DHT22;3385;48.928;10.330;2023-04-16T04:27:41;6.20;99.90
6696;DHT22;3385;48.928;10.330;2023-04-16T04:30:07;6.20;99.90
6696;DHT22;3385;48.928;10.330;2023-04-16T04:32:33;6.30;99.90
6696;DHT22;3385;48.928;10.330;2023-04-16T04:35:00;6.30;99.90
6696;DHT22;3385;48.928;10.330;2023-04-16T04:37:26;6.20;99.90
6696;DHT22;3385;48.928;10.330;2023-04-16T04:39:52;6.30;99.90
6696;DHT22;3385;48.928;10.330;2023-04-16T04:42:18;6.30;99.90
6696;DHT22;3385;48.928;10.330;2023-04-16T04:44:45;6.20;99.90
6696;DHT22;3385;48.928;10.330;2023-04-16T04:47:11;6.20;99.90
6696;DHT22;3385;48.928;10.330;2023-04-16T04:49:36;6.50;99.90
6696;DHT22;3385;48.928;10.330;2023-04-16T04:52:03;6.10;99.90
6696;DHT22;3385;48.928;10.330;2023-04-16T04:54:29;6.40;99.90
6696;DHT22;3385;48.928;10.330;2023-04-16T04:56:55;6.40;99.90
6696;DHT22;3385;48.928;10.330;2023-04-16T04:59:22;5.90;99.90
6696;DHT22;3385;48.928;10.330;2023-04-16T05:01:48;6.10;99.90
6696;DHT22;3385;48.928;10.330;2023-04-16T05:04:14;6.40;99.90
6696;DHT22;3385;48.928;10.330;2023-04-16T05:06:40;6.20;99.90
6696;DHT22;3385;48.928;10.330;2023-04-16T05:09:06;6.40;99.90
6696;DHT22;3385;48.928;10.330;2023-04-16T05:11:39;6.40;99.90
6696;DHT22;3385;48.928;10.330;2023-04-16T05:14:05;6.20;99.90
6696;DHT22;3385;48.928;10.330;2023-04-16T05:16:31;6.20;99.90
6696;DHT22;3385;48.928;10.330;2023-04-16T05:18:56;6.50;99.90
6696;DHT22;3385;48.928;10.330;2023-04-16T05:21:23;6.40;99.90
6696;DHT22;3385;48.928;10.330;2023-04-16T05:23:48;6.60;99.90
6696;DHT22;3385;48.928;10.330;2023-04-16T05:26:14;6.50;99.90
6696;DHT22;3385;48.928;10.330;2023-04-16T05:28:40;6.30;99.90
6696;DHT22;3385;48.928;10.330;2023-04-16T05:31:06;6.40;99.90
6696;DHT22;3385;48.928;10.330;2023-04-16T05:33:31;6.50;99.90
6696;DHT22;3385;48.928;10.330;2023-04-16T05:35:57;6.40;99.90
6696;DHT22;3385;48.928;10.330;2023-04-16T05:38:23;6.60;99.90
6696;DHT22;3385;48.928;10.330;2023-04-16T05:40:49;6.60;99.90
6696;DHT22;3385;48.928;10.330;2023-04-16T05:43:15;6.30;99.90
6696;DHT22;3385;48.928;10.330;2023-04-16T05:45:40;6.50;99.90
6696;DHT22;3385;48.928;10.330;2023-04-16T05:48:07;6.60;99.90
6696;DHT22;3385;48.928;10.330;2023-04-16T05:50:36;6.60;99.90
6696;DHT22;3385;48.928;10.330;2023-04-16T05:53:07;6.70;99.90
6696;DHT22;3385;48.928;10.330;2023-04-16T05:55:33;6.70;99.90
6696;DHT22;3385;48.928;10.330;2023-04-16T05:58:01;6.50;99.90
6696;DHT22;3385;48.928;10.330;2023-04-16T06:00:29;6.70;99.90
6696;DHT22;3385;48.928;10.330;2023-04-16T06:02:55;6.60;99.90
6696;DHT22;3385;48.928;10.330;2023-04-16T06:05:21;6.50;99.90
6696;DHT22;3385;48.928;10.330;2023-04-16T06:07:46;6.90;99.90
6696;DHT22;3385;48.928;10.330;2023-04-16T06:10:12;6.90;99.90
6696;DHT22;3385;48.928;10.330;2023-04-16T06:12:38;6.90;99.90
6696;DHT22;3385;48.928;10.330;2023-04-16T06:15:04;7.00;99.90
6696;DHT22;3385;48.928;10.330;2023-04-16T06:17:30;6.90;99.90
6696;DHT22;3385;48.928;10.330;2023-04-16T06:19:56;6.90;99.90
6696;DHT22;3385;48.928;10.330;2023-04-16T06:22:23;6.90;99.90
6696;DHT22;3385;48.928;10.330;2023-04-16T06:24:48;6.80;99.90
6696;DHT22;3385;48.928;10.330;2023-04-16T06:27:15;7.00;99.90
6696;DHT22;3385;48.928;10.330;2023-04-16T06:29:40;6.90;99.90
6696;DHT22;3385;48.928;10.330;2023-04-16T06:32:06;6.70;99.90
6696;DHT22;3385;48.928;10.330;2023-04-16T06:34:32;6.90;99.90
6696;DHT22;3385;48.928;10.330;2023-04-16T06:36:58;6.90;99.90
6696;DHT22;3385;48.928;10.330;2023-04-16T06:39:24;6.90;99.90
6696;DHT22;3385;48.928;10.330;2023-04-16T06:41:50;6.90;99.90
6696;DHT22;3385;48.928;10.330;2023-04-16T06:44:16;6.90;99.90
6696;DHT22;3385;48.928;10.330;2023-04-16T06:46:41;6.90;99.90
6696;DHT22;3385;48.928;10.330;2023-04-16T06:49:07;6.80;99.90
6696;DHT22;3385;48.928;10.330;2023-04-16T06:51:33;6.90;99.90
6696;DHT22;3385;48.928;10.330;2023-04-16T06:53:59;6.80;99.90
6696;DHT22;3385;48.928;10.330;2023-04-16T06:56:24;7.00;99.90
6696;DHT22;3385;48.928;10.330;2023-04-16T06:58:50;6.90;99.90
6696;DHT22;3385;48.928;10.330;2023-04-16T07:01:17;6.90;99.90
6696;DHT22;3385;48.928;10.330;2023-04-16T07:03:43;6.70;99.90
6696;DHT22;3385;48.928;10.330;2023-04-16T07:06:09;6.80;99.90
6696;DHT22;3385;48.928;10.330;2023-04-16T07:08:35;6.90;99.90
6696;DHT22;3385;48.928;10.330;2023-04-16T07:11:01;6.80;99.90
6696;DHT22;3385;48.928;10.330;2023-04-16T07:13:26;7.00;99.90
6696;DHT22;3385;48.928;10.330;2023-04-16T07:15:53;7.00;99.90
6696;DHT22;3385;48.928;10.330;2023-04-16T07:18:18;6.90;99.90
6696;DHT22;3385;48.928;10.330;2023-04-16T07:20:44;10.10;99.90
6696;DHT22;3385;48.928;10.330;2023-04-16T07:23:10;7.10;99.90
6696;DHT22;3385;48.928;10.330;2023-04-16T07:25:36;7.10;99.90
6696;DHT22;3385;48.928;10.330;2023-04-16T07:28:02;7.10;99.90
6696;DHT22;3385;48.928;10.330;2023-04-16T07:30:28;7.20;99.90
6696;DHT22;3385;48.928;10.330;2023-04-16T07:33:03;7.00;99.90
6696;DHT22;3385;48.928;10.330;2023-04-16T07:35:29;7.20;99.90
6696;DHT22;3385;48.928;10.330;2023-04-16T07:37:55;7.20;99.90
6696;DHT22;3385;48.928;10.330;2023-04-16T07:40:22;7.20;99.90
6696;DHT22;3385;48.928;10.330;2023-04-16T07:42:48;7.20;99.90
6696;DHT22;3385;48.928;10.330;2023-04-16T07:45:13;7.20;99.90
6696;DHT22;3385;48.928;10.330;2023-04-16T07:47:39;7.20;99.90
6696;DHT22;3385;48.928;10.330;2023-04-16T07:50:05;7.20;99.90
6696;DHT22;3385;48.928;10.330;2023-04-16T07:52:31;7.20;99.90
6696;DHT22;3385;48.928;10.330;2023-04-16T07:54:57;7.10;99.90
6696;DHT22;3385;48.928;10.330;2023-04-16T07:57:23;7.20;99.90
6696;DHT22;3385;48.928;10.330;2023-04-16T07:59:48;7.40;99.90
6696;DHT22;3385;48.928;10.330;2023-04-16T08:02:15;7.40;99.90
6696;DHT22;3385;48.928;10.330;2023-04-16T08:04:44;7.30;99.90
6696;DHT22;3385;48.928;10.330;2023-04-16T08:07:10;7.10;99.90
6696;DHT22;3385;48.928;10.330;2023-04-16T08:09:35;7.40;99.90
6696;DHT22;3385;48.928;10.330;2023-04-16T08:12:02;7.20;99.90
6696;DHT22;3385;48.928;10.330;2023-04-16T08:14:28;7.50;99.90
6696;DHT22;3385;48.928;10.330;2023-04-16T08:16:53;7.40;99.90
6696;DHT22;3385;48.928;10.330;2023-04-16T08:19:19;7.40;99.90
6696;DHT22;3385;48.928;10.330;2023-04-16T08:21:45;7.70;99.90
6696;DHT22;3385;48.928;10.330;2023-04-16T08:24:11;7.70;99.90
6696;DHT22;3385;48.928;10.330;2023-04-16T08:26:39;7.90;99.90
6696;DHT22;3385;48.928;10.330;2023-04-16T08:29:05;8.00;99.90
6696;DHT22;3385;48.928;10.330;2023-04-16T08:31:31;8.10;99.90
6696;DHT22;3385;48.928;10.330;2023-04-16T08:33:59;7.90;99.90
6696;DHT22;3385;48.928;10.330;2023-04-16T08:36:25;9.50;99.90
6696;DHT22;3385;48.928;10.330;2023-04-16T08:38:50;8.00;99.90
6696;DHT22;3385;48.928;10.330;2023-04-16T08:41:16;7.90;99.90
6696;DHT22;3385;48.928;10.330;2023-04-16T08:43:44;7.90;99.90
6696;DHT22;3385;48.928;10.330;2023-04-16T08:46:15;7.80;99.90
6696;DHT22;3385;48.928;10.330;2023-04-16T08:48:43;7.70;99.90
6696;DHT22;3385;48.928;10.330;2023-04-16T08:51:12;7.80;99.90
6696;DHT22;3385;48.928;10.330;2023-04-16T08:53:51;7.70;99.90
6696;DHT22;3385;48.928;10.330;2023-04-16T08:56:20;7.90;99.90
6696;DHT22;3385;48.928;10.330;2023-04-16T08:58:49;8.10;99.90
6696;DHT22;3385;48.928;10.330;2023-04-16T09:01:16;8.10;99.90
6696;DHT22;3385;48.928;10.330;2023-04-16T09:03:45;8.10;99.90
6696;DHT22;3385;48.928;10.330;2023-04-16T09:06:11;8.10;99.90
6696;DHT22;3385;48.928;10.330;2023-04-16T09:08:37;8.10;99.90
6696;DHT22;3385;48.928;10.330;2023-04-16T09:11:03;8.50;99.90
6696;DHT22;3385;48.928;10.330;2023-04-16T09:13:30;8.30;99.90
6696;DHT22;3385;48.928;10.330;2023-04-16T09:15:56;8.40;99.90
6696;DHT22;3385;48.928;10.330;2023-04-16T09:18:23;8.40;99.90
6696;DHT22;3385;48.928;10.330;2023-04-16T09:20:50;8.20;99.90
6696;DHT22;3385;48.928;10.330;2023-04-16T09:23:16;8.40;99.90
6696;DHT22;3385;48.928;10.330;2023-04-16T09:25:42;8.20;99.90
6696;DHT22;3385;48.928;10.330;2023-04-16T09:28:09;8.10;99.90
6696;DHT22;3385;48.928;10.330;2023-04-16T09:30:36;8.10;99.90
6696;DHT22;3385;48.928;10.330;2023-04-16T09:33:21;8.10;99.90
6696;DHT22;3385;48.928;10.330;2023-04-16T09:35:53;7.90;99.90
6696;DHT22;3385;48.928;10.330;2023-04-16T09:38:19;8.00;99.90
6696;DHT22;3385;48.928;10.330;2023-04-16T09:40:45;8.00;99.90
6696;DHT22;3385;48.928;10.330;2023-04-16T09:43:18;7.90;99.90
6696;DHT22;3385;48.928;10.330;2023-04-16T09:45:51;8.00;99.90
6696;DHT22;3385;48.928;10.330;2023-04-16T09:48:31;8.10;99.90
6696;DHT22;3385;48.928;10.330;2023-04-16T09:50:58;8.20;99.90
6696;DHT22;3385;48.928;10.330;2023-04-16T09:53:28;8.10;99.90
6696;DHT22;3385;48.928;10.330;2023-04-16T09:55:59;8.30;99.90
6696;DHT22;3385;48.928;10.330;2023-04-16T09:58:25;8.40;99.90
6696;DHT22;3385;48.928;10.330;2023-04-16T10:00:55;8.20;99.90
6696;DHT22;3385;48.928;10.330;2023-04-16T10:03:31;8.20;99.90
6696;DHT22;3385;48.928;10.330;2023-04-16T10:06:13;8.40;99.90
6696;DHT22;3385;48.928;10.330;2023-04-16T10:08:47;8.40;99.90
6696;DHT22;3385;48.928;10.330;2023-04-16T10:11:16;8.40;99.90
6696;DHT22;3385;48.928;10.330;2023-04-16T10:13:42;8.30;99.90
6696;DHT22;3385;48.928;10.330;2023-04-16T10:16:08;8.50;99.90
6696;DHT22;3385;48.928;10.330;2023-04-16T10:18:42;8.50;99.90
6696;DHT22;3385;48.928;10.330;2023-04-16T10:21:08;8.50;99.90
6696;DHT22;3385;48.928;10.330;2023-04-16T10:23:41;8.60;99.90
6696;DHT22;3385;48.928;10.330;2023-04-16T10:26:08;8.70;99.90
6696;DHT22;3385;48.928;10.330;2023-04-16T10:28:34;8.90;99.90
6696;DHT22;3385;48.928;10.330;2023-04-16T10:31:02;9.00;99.90
6696;DHT22;3385;48.928;10.330;2023-04-16T10:33:31;8.90;99.90
6696;DHT22;3385;48.928;10.330;2023-04-16T10:36:13;9.10;99.90
6696;DHT22;3385;48.928;10.330;2023-04-16T10:38:44;9.10;99.90
6696;DHT22;3385;48.928;10.330;2023-04-16T10:41:10;8.90;99.90
6696;DHT22;3385;48.928;10.330;2023-04-16T10:43:44;8.80;99.90
6696;DHT22;3385;48.928;10.330;2023-04-16T10:46:40;9.00;99.90
6696;DHT22;3385;48.928;10.330;2023-04-16T10:49:22;9.00;99.90
6696;DHT22;3385;48.928;10.330;2023-04-16T10:54:22;9.00;99.90
6696;DHT22;3385;48.928;10.330;2023-04-16T10:56:49;9.00;99.90
6696;DHT22;3385;48.928;10.330;2023-04-16T10:59:18;9.10;99.90
6696;DHT22;3385;48.928;10.330;2023-04-16T11:02:08;8.50;99.90
6696;DHT22;3385;48.928;10.330;2023-04-16T11:04:37;8.80;99.90
6696;DHT22;3385;48.928;10.330;2023-04-16T11:12:15;8.90;99.90
6696;DHT22;3385;48.928;10.330;2023-04-16T11:14:53;8.80;99.90
6696;DHT22;3385;48.928;10.330;2023-04-16T11:17:20;8.70;99.90
6696;DHT22;3385;48.928;10.330;2023-04-16T11:19:46;8.40;99.90
6696;DHT22;3385;48.928;10.330;2023-04-16T11:22:14;8.60;99.90
6696;DHT22;3385;48.928;10.330;2023-04-16T11:24:43;8.60;99.90
6696;DHT22;3385;48.928;10.330;2023-04-16T11:27:13;8.60;99.90
6696;DHT22;3385;48.928;10.330;2023-04-16T11:29:40;8.50;99.90
6696;DHT22;3385;48.928;10.330;2023-04-16T11:32:06;8.50;99.90
6696;DHT22;3385;48.928;10.330;2023-04-16T11:34:32;8.60;99.90
6696;DHT22;3385;48.928;10.330;2023-04-16T11:36:58;8.60;99.90
6696;DHT22;3385;48.928;10.330;2023-04-16T11:39:24;8.60;99.90
6696;DHT22;3385;48.928;10.330;2023-04-16T11:41:50;8.70;99.90
6696;DHT22;3385;48.928;10.330;2023-04-16T11:44:24;8.60;99.90
6696;DHT22;3385;48.928;10.330;2023-04-16T11:46:51;8.70;99.90
6696;DHT22;3385;48.928;10.330;2023-04-16T11:49:26;8.60;99.90
6696;DHT22;3385;48.928;10.330;2023-04-16T11:51:52;8.60;99.90
6696;DHT22;3385;48.928;10.330;2023-04-16T11:54:22;8.70;99.90
6696;DHT22;3385;48.928;10.330;2023-04-16T11:56:50;8.60;99.90
6696;DHT22;3385;48.928;10.330;2023-04-16T11:59:17;8.70;99.90
6696;DHT22;3385;48.928;10.330;2023-04-16T12:01:51;8.60;99.90
6696;DHT22;3385;48.928;10.330;2023-04-16T12:04:19;9.00;99.90
6696;DHT22;3385;48.928;10.330;2023-04-16T12:07:12;8.90;99.90
6696;DHT22;3385;48.928;10.330;2023-04-16T12:09:40;8.70;99.90
6696;DHT22;3385;48.928;10.330;2023-04-16T12:12:30;8.60;99.90
6696;DHT22;3385;48.928;10.330;2023-04-16T12:14:56;8.60;99.90
6696;DHT22;3385;48.928;10.330;2023-04-16T12:17:24;8.50;99.90
6696;DHT22;3385;48.928;10.330;2023-04-16T12:19:50;8.50;99.90
6696;DHT22;3385;48.928;10.330;2023-04-16T12:22:20;8.40;99.90
6696;DHT22;3385;48.928;10.330;2023-04-16T12:24:55;8.50;99.90
6696;DHT22;3385;48.928;10.330;2023-04-16T12:27:21;8.40;99.90
6696;DHT22;3385;48.928;10.330;2023-04-16T12:30:05;8.40;99.90
6696;DHT22;3385;48.928;10.330;2023-04-16T12:32:32;8.40;99.90
6696;DHT22;3385;48.928;10.330;2023-04-16T12:34:58;8.40;99.90
6696;DHT22;3385;48.928;10.330;2023-04-16T12:37:24;8.10;99.90
6696;DHT22;3385;48.928;10.330;2023-04-16T12:39:49;8.30;99.90
6696;DHT22;3385;48.928;10.330;2023-04-16T12:42:15;8.30;99.90
6696;DHT22;3385;48.928;10.330;2023-04-16T12:44:41;8.40;99.90
6696;DHT22;3385;48.928;10.330;2023-04-16T12:47:06;8.30;99.90
6696;DHT22;3385;48.928;10.330;2023-04-16T12:49:32;8.50;99.90
6696;DHT22;3385;48.928;10.330;2023-04-16T12:51:58;8.30;99.90
6696;DHT22;3385;48.928;10.330;2023-04-16T12:54:24;8.20;99.90
6696;DHT22;3385;48.928;10.330;2023-04-16T12:56:53;8.30;99.90
6696;DHT22;3385;48.928;10.330;2023-04-16T12:59:19;8.40;99.90
6696;DHT22;3385;48.928;10.330;2023-04-16T13:01:44;8.20;99.90
6696;DHT22;3385;48.928;10.330;2023-04-16T13:04:10;8.30;99.90
6696;DHT22;3385;48.928;10.330;2023-04-16T13:06:36;8.30;99.90
6696;DHT22;3385;48.928;10.330;2023-04-16T13:09:03;8.30;99.90
6696;DHT22;3385;48.928;10.330;2023-04-16T13:11:29;8.70;99.90
6696;DHT22;3385;48.928;10.330;2023-04-16T13:13:54;8.40;99.90
6696;DHT22;3385;48.928;10.330;2023-04-16T13:16:20;8.40;99.90
6696;DHT22;3385;48.928;10.330;2023-04-16T13:18:46;8.60;99.90
6696;DHT22;3385;48.928;10.330;2023-04-16T13:21:12;8.60;99.90
6696;DHT22;3385;48.928;10.330;2023-04-16T13:23:38;8.70;99.90
6696;DHT22;3385;48.928;10.330;2023-04-16T13:26:04;8.60;99.90
6696;DHT22;3385;48.928;10.330;2023-04-16T13:28:30;8.60;99.90
6696;DHT22;3385;48.928;10.330;2023-04-16T13:30:56;8.50;99.90
6696;DHT22;3385;48.928;10.330;2023-04-16T13:33:22;8.50;99.90
6696;DHT22;3385;48.928;10.330;2023-04-16T13:35:48;8.50;99.90
6696;DHT22;3385;48.928;10.330;2023-04-16T13:38:14;8.50;99.90
6696;DHT22;3385;48.928;10.330;2023-04-16T13:40:40;8.50;99.90
6696;DHT22;3385;48.928;10.330;2023-04-16T13:43:06;8.50;99.90
6696;DHT22;3385;48.928;10.330;2023-04-16T13:45:32;8.50;99.90
6696;DHT22;3385;48.928;10.330;2023-04-16T13:47:58;8.40;99.90
6696;DHT22;3385;48.928;10.330;2023-04-16T13:50:24;8.40;99.90
6696;DHT22;3385;48.928;10.330;2023-04-16T13:52:50;8.40;99.90
6696;DHT22;3385;48.928;10.330;2023-04-16T13:55:16;8.40;99.90
6696;DHT22;3385;48.928;10.330;2023-04-16T13:57:46;8.40;99.90
6696;DHT22;3385;48.928;10.330;2023-04-16T14:00:13;8.40;99.90
6696;DHT22;3385;48.928;10.330;2023-04-16T14:02:41;8.40;99.90
6696;DHT22;3385;48.928;10.330;2023-04-16T14:05:07;8.40;99.90
6696;DHT22;3385;48.928;10.330;2023-04-16T14:07:33;8.50;99.90
6696;DHT22;3385;48.928;10.330;2023-04-16T14:09:59;11.80;99.90
6696;DHT22;3385;48.928;10.330;2023-04-16T14:12:26;8.50;99.90
6696;DHT22;3385;48.928;10.330;2023-04-16T14:14:52;8.50;99.90
6696;DHT22;3385;48.928;10.330;2023-04-16T14:17:18;8.50;99.90
6696;DHT22;3385;48.928;10.330;2023-04-16T14:19:46;8.60;99.90
6696;DHT22;3385;48.928;10.330;2023-04-16T14:22:13;8.60;99.90
6696;DHT22;3385;48.928;10.330;2023-04-16T14:24:42;8.90;99.90
6696;DHT22;3385;48.928;10.330;2023-04-16T14:27:08;8.90;99.90
6696;DHT22;3385;48.928;10.330;2023-04-16T14:29:34;8.90;99.90
6696;DHT22;3385;48.928;10.330;2023-04-16T14:32:01;8.90;99.90
6696;DHT22;3385;48.928;10.330;2023-04-16T14:34:27;8.80;99.90
6696;DHT22;3385;48.928;10.330;2023-04-16T14:36:52;8.90;99.90
6696;DHT22;3385;48.928;10.330;2023-04-16T14:39:19;8.70;99.90
6696;DHT22;3385;48.928;10.330;2023-04-16T14:41:45;8.80;99.90
6696;DHT22;3385;48.928;10.330;2023-04-16T14:44:11;8.90;99.90
6696;DHT22;3385;48.928;10.330;2023-04-16T14:46:36;8.90;99.90
6696;DHT22;3385;48.928;10.330;2023-04-16T14:49:03;9.10;99.90
6696;DHT22;3385;48.928;10.330;2023-04-16T14:51:29;9.20;99.90
6696;DHT22;3385;48.928;10.330;2023-04-16T14:53:56;9.20;99.90
6696;DHT22;3385;48.928;10.330;2023-04-16T14:56:22;9.50;99.90
6696;DHT22;3385;48.928;10.330;2023-04-16T14:58:47;9.40;99.90
6696;DHT22;3385;48.928;10.330;2023-04-16T15:01:13;9.40;99.90
6696;DHT22;3385;48.928;10.330;2023-04-16T15:03:39;9.30;99.90
6696;DHT22;3385;48.928;10.330;2023-04-16T15:06:06;9.20;99.90
6696;DHT22;3385;48.928;10.330;2023-04-16T15:08:33;9.10;99.90
6696;DHT22;3385;48.928;10.330;2023-04-16T15:10:59;9.10;99.90
6696;DHT22;3385;48.928;10.330;2023-04-16T15:13:24;8.90;99.90
6696;DHT22;3385;48.928;10.330;2023-04-16T15:15:58;8.90;99.90
6696;DHT22;3385;48.928;10.330;2023-04-16T15:18:24;8.80;99.90
6696;DHT22;3385;48.928;10.330;2023-04-16T15:20:50;8.80;99.90
6696;DHT22;3385;48.928;10.330;2023-04-16T15:23:16;8.90;99.90
6696;DHT22;3385;48.928;10.330;2023-04-16T15:25:41;9.00;99.90
6696;DHT22;3385;48.928;10.330;2023-04-16T15:28:07;9.20;99.90
6696;DHT22;3385;48.928;10.330;2023-04-16T15:30:33;9.20;99.90
6696;DHT22;3385;48.928;10.330;2023-04-16T15:32:59;9.20;99.90
6696;DHT22;3385;48.928;10.330;2023-04-16T15:35:24;8.90;99.90
6696;DHT22;3385;48.928;10.330;2023-04-16T15:37:50;9.30;99.90
6696;DHT22;3385;48.928;10.330;2023-04-16T15:40:17;9.00;99.90
6696;DHT22;3385;48.928;10.330;2023-04-16T15:42:43;8.90;99.90
6696;DHT22;3385;48.928;10.330;2023-04-16T15:45:09;9.00;99.90
6696;DHT22;3385;48.928;10.330;2023-04-16T15:47:35;8.80;99.90
6696;DHT22;3385;48.928;10.330;2023-04-16T15:50:01;8.90;99.90
6696;DHT22;3385;48.928;10.330;2023-04-16T15:52:28;8.90;99.90
6696;DHT22;3385;48.928;10.330;2023-04-16T15:54:54;8.80;99.90
6696;DHT22;3385;48.928;10.330;2023-04-16T15:57:20;9.00;99.90
6696;DHT22;3385;48.928;10.330;2023-04-16T15:59:46;9.00;99.90
6696;DHT22;3385;48.928;10.330;2023-04-16T16:02:12;9.00;99.90
6696;DHT22;3385;48.928;10.330;2023-04-16T16:04:37;9.00;99.90
6696;DHT22;3385;48.928;10.330;2023-04-16T16:07:03;9.00;99.90
6696;DHT22;3385;48.928;10.330;2023-04-16T16:09:29;8.90;99.90